createdAt,value
2023-12-07T00:01:35.394Z,82.13
2023-12-07T00:04:02.621Z,84.57
2023-12-07T00:06:29.073Z,82.53
2023-12-07T00:08:55.544Z,87.25
2023-12-07T00:11:27.979Z,85.70
2023-12-07T00:13:54.545Z,87.65
2023-12-07T00:16:20.997Z,94.18
2023-12-07T00:18:47.410Z,92.43
2023-12-07T00:21:13.773Z,87.95
2023-12-07T00:23:40.140Z,94.50
2023-12-07T00:26:10.211Z,94.97
2023-12-07T00:28:36.565Z,95.72
2023-12-07T00:31:03.248Z,95.00
2023-12-07T00:33:33.914Z,99.28
2023-12-07T00:36:06.679Z,89.93
2023-12-07T00:38:36.948Z,97.03
2023-12-07T00:41:03.454Z,97.85
2023-12-07T00:43:29.878Z,106.40
2023-12-07T00:45:56.377Z,94.82
2023-12-07T00:48:25.875Z,108.88
2023-12-07T00:50:54.724Z,105.18
2023-12-07T00:53:23.713Z,95.95
2023-12-07T00:55:50.270Z,99.25
2023-12-07T00:58:16.797Z,93.07
2023-12-07T01:00:46.144Z,112.82
2023-12-07T01:03:15.752Z,110.95
2023-12-07T01:05:42.309Z,111.18
2023-12-07T01:08:08.780Z,105.43
2023-12-07T01:10:38.602Z,110.38
2023-12-07T01:13:07.635Z,104.03
2023-12-07T01:15:43.095Z,104.10
2023-12-07T01:18:09.605Z,93.68
2023-12-07T01:20:36.519Z,81.60
2023-12-07T01:23:03.253Z,95.95
2023-12-07T01:25:29.888Z,91.97
2023-12-07T01:27:56.493Z,84.40
2023-12-07T01:30:22.990Z,87.55
2023-12-07T01:32:57.317Z,83.47
2023-12-07T01:37:51.957Z,79.78
2023-12-07T01:40:19.164Z,82.20
2023-12-07T01:42:52.592Z,80.28
2023-12-07T01:45:19.144Z,80.43
2023-12-07T01:47:46.179Z,85.80
2023-12-07T01:50:15.817Z,83.78
2023-12-07T01:52:45.589Z,79.35
2023-12-07T01:55:12.901Z,84.97
2023-12-07T01:57:43.658Z,89.53
2023-12-07T02:00:13.301Z,89.95
2023-12-07T02:02:42.359Z,89.85
2023-12-07T02:05:13.328Z,86.72
2023-12-07T02:07:41.710Z,90.68
2023-12-07T02:10:08.362Z,89.10
2023-12-07T02:12:35.332Z,87.65
2023-12-07T02:15:03.208Z,85.72
2023-12-07T02:17:29.664Z,86.30
2023-12-07T02:19:58.117Z,103.30
2023-12-07T02:22:28.157Z,90.55
2023-12-07T02:25:10.186Z,86.40
2023-12-07T02:27:38.650Z,83.35
2023-12-07T02:30:08.047Z,100.57
2023-12-07T02:32:35.270Z,99.07
2023-12-07T02:35:01.906Z,85.18
2023-12-07T02:37:29.816Z,100.30
2023-12-07T02:39:57.116Z,101.78
2023-12-07T02:42:25.005Z,94.53
2023-12-07T02:44:53.739Z,89.20
2023-12-07T02:47:20.156Z,91.20
2023-12-07T02:49:46.506Z,105.38
2023-12-07T02:52:13.003Z,108.80
2023-12-07T02:54:42.307Z,102.13
2023-12-07T02:57:11.829Z,103.45
2023-12-07T02:59:40.665Z,111.40
2023-12-07T03:02:11.366Z,111.90
2023-12-07T03:04:39.681Z,113.05
2023-12-07T03:07:06.061Z,121.00
2023-12-07T03:09:32.672Z,125.72
2023-12-07T03:11:59.063Z,116.75
2023-12-07T03:14:32.646Z,128.18
2023-12-07T03:16:59.106Z,109.00
2023-12-07T03:19:26.049Z,124.60
2023-12-07T03:21:52.566Z,106.88
2023-12-07T03:24:18.950Z,112.40
2023-12-07T03:26:45.349Z,115.47
2023-12-07T03:29:14.650Z,123.90
2023-12-07T03:31:46.510Z,114.70
2023-12-07T03:34:16.658Z,112.55
2023-12-07T03:36:43.981Z,106.45
2023-12-07T03:39:11.299Z,122.68
2023-12-07T03:41:37.844Z,115.00
2023-12-07T03:44:04.325Z,108.13
2023-12-07T03:46:33.845Z,103.30
2023-12-07T03:49:01.112Z,127.60
2023-12-07T03:51:30.713Z,104.45
2023-12-07T03:53:58.331Z,103.82
2023-12-07T03:56:30.923Z,108.95
2023-12-07T03:58:57.927Z,96.22
2023-12-07T04:01:25.173Z,102.05
2023-12-07T04:03:55.885Z,105.10
2023-12-07T04:06:31.665Z,120.75
2023-12-07T04:09:00.106Z,106.88
2023-12-07T04:11:26.555Z,112.80
2023-12-07T04:13:53.173Z,108.30
2023-12-07T04:16:23.053Z,123.50
2023-12-07T04:18:49.946Z,110.10
2023-12-07T04:21:16.485Z,89.25
2023-12-07T04:23:52.234Z,106.55
2023-12-07T04:26:21.305Z,106.03
2023-12-07T04:28:47.927Z,114.97
2023-12-07T04:31:20.452Z,104.32
2023-12-07T04:33:46.864Z,104.40
2023-12-07T04:36:17.110Z,108.90
2023-12-07T04:38:46.331Z,114.15
2023-12-07T04:41:23.364Z,107.70
2023-12-07T04:43:55.628Z,99.55
2023-12-07T04:46:27.001Z,94.20
2023-12-07T04:48:57.550Z,112.70
2023-12-07T04:51:24.005Z,101.95
2023-12-07T04:53:50.618Z,103.80
2023-12-07T04:56:21.294Z,105.93
2023-12-07T04:58:47.676Z,124.32
2023-12-07T05:01:14.242Z,110.13
2023-12-07T05:03:40.781Z,111.45
2023-12-07T05:06:08.665Z,115.60
2023-12-07T05:08:35.034Z,116.05
2023-12-07T05:11:01.455Z,111.68
2023-12-07T05:13:28.079Z,106.43
2023-12-07T05:16:01.100Z,93.22
2023-12-07T05:21:21.179Z,104.97
2023-12-07T05:23:47.544Z,108.63
2023-12-07T05:26:14.134Z,109.00
2023-12-07T05:28:40.560Z,112.60
2023-12-07T05:31:09.053Z,109.13
2023-12-07T05:33:35.735Z,104.18
2023-12-07T05:36:04.710Z,97.78
2023-12-07T05:38:31.254Z,110.03
2023-12-07T05:40:57.583Z,96.78
2023-12-07T05:43:24.364Z,94.75
2023-12-07T05:45:52.037Z,117.35
2023-12-07T05:48:21.131Z,108.88
2023-12-07T05:50:50.668Z,97.35
2023-12-07T05:53:22.986Z,97.30
2023-12-07T05:55:52.978Z,95.28
2023-12-07T05:58:22.682Z,101.65
2023-12-07T06:00:52.377Z,104.88
2023-12-07T06:03:21.614Z,103.28
2023-12-07T06:05:51.185Z,109.75
2023-12-07T06:08:17.612Z,107.65
2023-12-07T06:10:50.125Z,102.53
2023-12-07T06:13:18.322Z,119.43
2023-12-07T06:15:59.286Z,115.05
2023-12-07T06:18:26.536Z,95.30
2023-12-07T06:20:56.684Z,118.93
2023-12-07T06:23:25.473Z,105.05
2023-12-07T06:25:57.270Z,111.20
2023-12-07T06:28:24.238Z,101.32
2023-12-07T06:30:50.707Z,103.32
2023-12-07T06:33:18.138Z,93.90
2023-12-07T06:41:11.790Z,100.68
2023-12-07T06:43:41.360Z,93.57
2023-12-07T06:46:07.893Z,89.82
2023-12-07T06:48:44.528Z,102.03
2023-12-07T06:51:11.646Z,100.60
2023-12-07T06:53:43.804Z,98.55
2023-12-07T06:56:17.160Z,107.55
2023-12-07T06:58:46.123Z,107.80
2023-12-07T07:01:13.988Z,108.03
2023-12-07T07:03:40.789Z,118.85
2023-12-07T07:06:07.390Z,117.75
2023-12-07T07:08:36.876Z,116.63
2023-12-07T07:11:04.895Z,115.43
2023-12-07T07:13:31.330Z,114.22
2023-12-07T07:15:57.692Z,104.20
2023-12-07T07:18:29.560Z,108.40
2023-12-07T07:21:02.351Z,93.05
2023-12-07T07:23:28.861Z,113.35
2023-12-07T07:25:55.235Z,98.50
2023-12-07T07:28:21.874Z,111.30
2023-12-07T07:30:51.366Z,111.55
2023-12-07T07:33:26.901Z,93.38
2023-12-07T07:35:55.294Z,99.63
2023-12-07T07:38:34.452Z,101.70
2023-12-07T07:41:01.684Z,115.32
2023-12-07T07:43:30.634Z,113.43
2023-12-07T07:45:57.394Z,102.13
2023-12-07T07:48:26.865Z,102.13
2023-12-07T07:50:53.541Z,105.65
2023-12-07T07:53:20.342Z,110.25
2023-12-07T07:56:09.403Z,97.45
2023-12-07T07:58:37.318Z,94.18
2023-12-07T08:01:04.598Z,95.35
2023-12-07T08:03:31.134Z,105.90
2023-12-07T08:05:57.801Z,110.28
2023-12-07T08:08:33.414Z,106.20
2023-12-07T08:11:00.294Z,94.93
2023-12-07T08:13:27.183Z,114.80
2023-12-07T08:15:56.800Z,95.45
2023-12-07T08:18:25.464Z,89.95
2023-12-07T08:20:54.768Z,95.82
2023-12-07T08:23:21.749Z,98.88
2023-12-07T08:25:58.775Z,107.68
2023-12-07T08:28:25.476Z,101.68
2023-12-07T08:30:52.312Z,85.00
2023-12-07T08:33:19.052Z,94.55
2023-12-07T08:35:45.743Z,104.85
2023-12-07T08:38:12.193Z,109.88
2023-12-07T08:40:50.151Z,105.18
2023-12-07T08:43:16.656Z,96.65
2023-12-07T08:45:48.992Z,108.38
2023-12-07T08:48:15.587Z,89.70
2023-12-07T08:50:42.154Z,89.25
2023-12-07T08:53:08.604Z,90.47
2023-12-07T08:55:35.112Z,86.88
2023-12-07T08:58:01.832Z,102.90
2023-12-07T09:00:30.097Z,89.68
2023-12-07T09:03:01.193Z,100.55
2023-12-07T09:05:28.355Z,94.60
2023-12-07T09:08:00.944Z,87.60
2023-12-07T09:10:27.446Z,82.82
2023-12-07T09:13:00.055Z,93.70
2023-12-07T09:15:26.419Z,85.07
2023-12-07T09:17:54.098Z,94.75
2023-12-07T09:20:28.212Z,91.85
2023-12-07T09:23:00.864Z,89.43
2023-12-07T09:25:29.064Z,81.25
2023-12-07T09:27:59.266Z,87.35
2023-12-07T09:30:25.734Z,95.28
2023-12-07T09:32:52.184Z,81.15
2023-12-07T09:35:22.038Z,101.57
2023-12-07T09:37:51.528Z,89.97
2023-12-07T09:40:23.201Z,89.10
2023-12-07T09:42:50.886Z,77.20
2023-12-07T09:45:19.690Z,85.13
2023-12-07T09:47:52.302Z,95.80
2023-12-07T09:50:27.280Z,80.45
2023-12-07T09:53:07.195Z,81.45
2023-12-07T09:55:39.365Z,90.28
2023-12-07T09:58:07.864Z,92.13
2023-12-07T10:00:39.026Z,94.43
2023-12-07T10:03:11.641Z,89.80
2023-12-07T10:06:04.774Z,101.68
2023-12-07T10:08:32.184Z,93.30
2023-12-07T10:11:10.754Z,101.78
2023-12-07T10:13:37.801Z,99.78
2023-12-07T10:16:08.064Z,95.68
2023-12-07T10:18:39.193Z,87.13
2023-12-07T10:21:19.473Z,95.10
2023-12-07T10:23:50.000Z,97.40
2023-12-07T10:26:17.599Z,99.78
2023-12-07T10:28:58.166Z,102.25
2023-12-07T10:31:25.275Z,102.95
2023-12-07T10:34:07.391Z,87.57
2023-12-07T10:36:33.834Z,92.82
2023-12-07T10:39:03.087Z,78.40
2023-12-07T10:41:29.578Z,91.97
2023-12-07T10:44:16.259Z,86.82
2023-12-07T10:46:43.818Z,79.50
2023-12-07T10:49:18.396Z,88.15
2023-12-07T10:52:04.942Z,91.93
2023-12-07T10:54:34.542Z,90.18
2023-12-07T10:57:03.561Z,91.68
2023-12-07T10:59:33.000Z,86.57
2023-12-07T11:02:02.628Z,102.35
2023-12-07T11:04:30.681Z,83.82
2023-12-07T11:07:00.223Z,90.55
2023-12-07T11:09:29.849Z,99.90
2023-12-07T11:12:09.546Z,86.15
2023-12-07T11:14:39.893Z,76.03
2023-12-07T11:17:06.395Z,83.03
2023-12-07T11:19:43.169Z,85.70
2023-12-07T11:22:11.721Z,75.78
2023-12-07T11:24:40.815Z,94.95
2023-12-07T11:27:07.205Z,83.97
2023-12-07T11:29:33.622Z,93.22
2023-12-07T11:32:13.868Z,92.30
2023-12-07T11:34:44.592Z,95.03
2023-12-07T11:37:11.868Z,102.93
2023-12-07T11:39:47.055Z,98.90
2023-12-07T11:42:17.437Z,98.25
2023-12-07T11:44:48.892Z,81.03
2023-12-07T11:47:21.981Z,84.97
2023-12-07T11:49:48.666Z,98.78
2023-12-07T11:52:19.880Z,78.32
2023-12-07T11:54:49.806Z,101.88
2023-12-07T11:57:16.936Z,91.57
2023-12-07T11:59:49.252Z,91.18
2023-12-07T12:02:17.029Z,89.90
2023-12-07T12:04:44.398Z,90.75
2023-12-07T12:07:11.138Z,71.55
2023-12-07T12:09:45.255Z,76.55
2023-12-07T12:12:11.676Z,91.07
2023-12-07T12:14:38.069Z,70.13
2023-12-07T12:17:07.979Z,72.82
2023-12-07T12:19:37.427Z,77.03
2023-12-07T12:22:10.508Z,87.45
2023-12-07T12:24:38.236Z,51.85
2023-12-07T12:27:05.173Z,77.82
2023-12-07T12:29:34.667Z,75.43
2023-12-07T12:32:05.584Z,72.35
2023-12-07T12:34:34.261Z,90.57
2023-12-07T12:37:04.265Z,81.03
2023-12-07T12:39:33.457Z,77.70
2023-12-07T12:42:04.855Z,76.28
2023-12-07T12:44:36.505Z,66.70
2023-12-07T12:47:11.629Z,77.13
2023-12-07T12:49:42.242Z,77.20
2023-12-07T12:52:12.520Z,76.40
2023-12-07T12:54:39.399Z,86.30
2023-12-07T12:57:11.566Z,74.53
2023-12-07T12:59:38.057Z,73.28
2023-12-07T13:02:12.962Z,78.60
2023-12-07T13:04:41.920Z,77.38
2023-12-07T13:07:31.736Z,64.47
2023-12-07T13:10:05.670Z,69.05
2023-12-07T13:12:35.800Z,69.75
2023-12-07T13:15:08.986Z,64.63
2023-12-07T13:20:30.364Z,63.50
2023-12-07T13:22:57.972Z,66.95
2023-12-07T13:25:24.506Z,62.95
2023-12-07T13:27:51.139Z,69.50
2023-12-07T13:30:17.602Z,67.25
2023-12-07T13:32:44.131Z,60.20
2023-12-07T13:35:11.030Z,59.55
2023-12-07T13:37:37.577Z,64.32
2023-12-07T13:40:05.071Z,55.35
2023-12-07T13:42:31.942Z,50.70
2023-12-07T13:44:59.735Z,51.15
2023-12-07T13:47:37.689Z,46.97
2023-12-07T13:50:05.041Z,51.28
2023-12-07T13:52:31.740Z,53.53
2023-12-07T13:54:58.388Z,64.30
2023-12-07T13:57:28.661Z,59.70
2023-12-07T13:59:55.762Z,52.60
2023-12-07T14:02:22.180Z,55.17
2023-12-07T14:04:51.866Z,57.47
2023-12-07T14:07:22.888Z,66.68
2023-12-07T14:09:58.072Z,59.38
2023-12-07T14:12:26.249Z,61.47
2023-12-07T14:14:53.002Z,55.63
2023-12-07T14:17:20.871Z,65.25
2023-12-07T14:19:55.803Z,51.90
2023-12-07T14:22:22.917Z,47.25
2023-12-07T14:24:49.984Z,69.10
2023-12-07T14:27:16.790Z,71.75
2023-12-07T14:29:46.140Z,61.58
2023-12-07T14:32:12.529Z,78.65
2023-12-07T14:34:39.049Z,72.00
2023-12-07T14:37:11.420Z,69.85
2023-12-07T14:39:37.856Z,76.47
2023-12-07T14:42:11.636Z,76.57
2023-12-07T14:44:38.030Z,76.72
2023-12-07T14:47:11.268Z,67.70
2023-12-07T14:49:37.858Z,60.10
2023-12-07T14:52:06.933Z,76.32
2023-12-07T14:54:33.634Z,73.22
2023-12-07T14:57:00.207Z,66.90
2023-12-07T14:59:27.971Z,57.95
2023-12-07T15:01:54.430Z,80.72
2023-12-07T15:04:28.427Z,76.18
2023-12-07T15:07:00.131Z,59.22
2023-12-07T15:09:26.485Z,73.60
2023-12-07T15:11:53.264Z,66.90
2023-12-07T15:14:30.542Z,73.00
2023-12-07T15:17:03.513Z,75.45
2023-12-07T15:19:33.272Z,83.63
2023-12-07T15:22:01.903Z,70.55
2023-12-07T15:24:34.727Z,73.43
2023-12-07T15:27:03.371Z,75.90
2023-12-07T15:29:29.937Z,57.65
2023-12-07T15:31:58.159Z,97.78
2023-12-07T15:34:33.431Z,71.38
2023-12-07T15:37:05.763Z,86.25
2023-12-07T15:39:32.326Z,78.28
2023-12-07T15:42:05.428Z,64.45
2023-12-07T15:44:34.428Z,72.00
2023-12-07T15:47:01.004Z,62.97
2023-12-07T15:49:27.545Z,68.78
2023-12-07T15:51:59.968Z,67.70
2023-12-07T15:54:35.161Z,63.60
2023-12-07T15:57:06.309Z,71.22
2023-12-07T15:59:38.564Z,62.08
2023-12-07T16:02:05.127Z,61.60
2023-12-07T16:04:34.191Z,60.35
2023-12-07T16:07:08.856Z,65.00
2023-12-07T16:12:04.314Z,65.18
2023-12-07T16:14:31.770Z,63.80
2023-12-07T16:16:59.158Z,51.53
2023-12-07T16:19:26.241Z,73.68
2023-12-07T16:21:52.808Z,60.05
2023-12-07T16:24:19.742Z,73.72
2023-12-07T16:26:46.347Z,69.15
2023-12-07T16:29:12.861Z,70.65
2023-12-07T16:31:39.239Z,74.75
2023-12-07T16:34:06.015Z,62.95
2023-12-07T16:36:32.544Z,78.47
2023-12-07T16:39:02.693Z,76.75
2023-12-07T16:41:32.999Z,68.25
2023-12-07T16:44:02.569Z,62.35
2023-12-07T16:46:28.921Z,70.15
2023-12-07T16:48:55.507Z,60.45
2023-12-07T16:51:22.270Z,64.72
2023-12-07T16:53:52.462Z,72.90
2023-12-07T16:56:18.893Z,65.50
2023-12-07T16:58:45.286Z,63.95
2023-12-07T17:01:15.893Z,62.15
2023-12-07T17:03:42.517Z,62.97
2023-12-07T17:06:12.495Z,64.07
2023-12-07T17:08:38.926Z,62.38
2023-12-07T17:11:05.473Z,63.25
2023-12-07T17:13:31.882Z,57.17
2023-12-07T17:16:02.516Z,61.08
2023-12-07T17:18:29.129Z,57.63
2023-12-07T17:20:55.708Z,47.10
2023-12-07T17:23:22.159Z,42.97
2023-12-07T17:25:48.550Z,43.33
2023-12-07T17:28:15.175Z,44.33
2023-12-07T17:30:47.440Z,45.22
2023-12-07T17:33:13.961Z,45.30
2023-12-07T17:35:42.888Z,51.88
2023-12-07T17:38:09.896Z,42.67
2023-12-07T17:40:36.257Z,40.63
2023-12-07T17:43:02.648Z,40.00
2023-12-07T17:45:29.013Z,39.80
2023-12-07T17:47:55.665Z,33.65
2023-12-07T17:50:28.263Z,39.45
2023-12-07T17:52:55.993Z,42.50
2023-12-07T17:55:29.730Z,42.50
2023-12-07T17:58:03.591Z,38.67
2023-12-07T18:00:33.161Z,48.35
2023-12-07T18:02:59.595Z,41.45
2023-12-07T18:05:26.190Z,43.53
2023-12-07T18:07:52.651Z,43.72
2023-12-07T18:10:23.473Z,49.92
2023-12-07T18:12:49.886Z,42.28
2023-12-07T18:15:18.496Z,47.42
2023-12-07T18:17:44.891Z,43.40
2023-12-07T18:20:11.652Z,54.55
2023-12-07T18:22:38.041Z,52.88
2023-12-07T18:25:04.613Z,46.83
2023-12-07T18:27:34.018Z,51.08
2023-12-07T18:30:00.462Z,48.80
2023-12-07T18:32:26.961Z,41.83
2023-12-07T18:34:53.380Z,44.95
2023-12-07T18:37:19.793Z,40.83
2023-12-07T18:39:46.142Z,41.90
2023-12-07T18:42:12.595Z,55.03
2023-12-07T18:44:39.040Z,48.38
2023-12-07T18:47:05.601Z,42.38
2023-12-07T18:49:33.200Z,32.95
2023-12-07T18:51:59.791Z,46.17
2023-12-07T18:54:26.386Z,30.33
2023-12-07T18:56:53.949Z,54.95
2023-12-07T18:59:25.333Z,42.70
2023-12-07T19:01:51.800Z,47.67
2023-12-07T19:04:18.154Z,33.30
2023-12-07T19:06:44.561Z,37.00
2023-12-07T19:09:11.339Z,38.70
2023-12-07T19:11:37.719Z,33.63
2023-12-07T19:14:07.031Z,29.95
2023-12-07T19:16:33.481Z,36.05
2023-12-07T19:19:00.011Z,34.22
2023-12-07T19:21:26.732Z,36.30
2023-12-07T19:23:53.161Z,35.70
2023-12-07T19:26:20.781Z,39.67
2023-12-07T19:28:50.203Z,40.83
2023-12-07T19:31:21.094Z,36.35
2023-12-07T19:33:47.603Z,41.08
2023-12-07T19:36:14.048Z,34.58
2023-12-07T19:38:59.427Z,41.63
2023-12-07T19:41:28.930Z,33.38
2023-12-07T19:43:55.381Z,35.53
2023-12-07T19:46:22.734Z,39.97
2023-12-07T19:48:49.417Z,38.92
2023-12-07T19:51:20.151Z,37.58
2023-12-07T19:53:46.968Z,38.55
2023-12-07T19:56:13.622Z,35.60
2023-12-07T19:58:40.353Z,42.00
2023-12-07T20:01:09.662Z,34.30
2023-12-07T20:03:36.536Z,35.75
2023-12-07T20:06:03.328Z,35.25
2023-12-07T20:08:30.755Z,40.60
2023-12-07T20:10:57.889Z,34.20
2023-12-07T20:13:33.106Z,34.85
2023-12-07T20:16:04.084Z,29.65
2023-12-07T20:18:31.922Z,34.72
2023-12-07T20:21:02.630Z,40.30
2023-12-07T20:23:29.262Z,40.65
2023-12-07T20:25:56.087Z,34.20
2023-12-07T20:28:22.584Z,40.17
2023-12-07T20:30:48.920Z,34.10
2023-12-07T20:33:15.430Z,31.98
2023-12-07T20:35:42.056Z,33.58
2023-12-07T20:38:11.487Z,33.40
2023-12-07T20:43:21.057Z,36.78
2023-12-07T20:45:47.525Z,31.98
2023-12-07T20:48:14.903Z,38.00
2023-12-07T20:50:42.666Z,32.60
2023-12-07T20:53:09.243Z,40.17
2023-12-07T20:55:45.849Z,33.30
2023-12-07T20:58:12.451Z,33.10
2023-12-07T21:00:38.988Z,35.13
2023-12-07T21:03:08.848Z,32.58
2023-12-07T21:05:36.034Z,25.05
2023-12-07T21:08:02.491Z,28.08
2023-12-07T21:10:28.923Z,24.88
2023-12-07T21:12:58.243Z,27.85
2023-12-07T21:15:25.677Z,27.48
2023-12-07T21:17:52.295Z,29.33
2023-12-07T21:20:18.743Z,30.00
2023-12-07T21:22:45.816Z,27.20
2023-12-07T21:25:12.341Z,30.42
2023-12-07T21:27:38.978Z,24.95
2023-12-07T21:30:08.951Z,29.80
2023-12-07T21:32:36.971Z,29.00
2023-12-07T21:35:03.486Z,29.70
2023-12-07T21:37:31.161Z,30.95
2023-12-07T21:39:59.057Z,26.40
2023-12-07T21:42:25.428Z,29.13
2023-12-07T21:44:51.865Z,32.30
2023-12-07T21:47:18.674Z,25.85
2023-12-07T21:49:45.182Z,25.95
2023-12-07T21:52:11.669Z,23.23
2023-12-07T21:54:38.077Z,26.30
2023-12-07T21:57:04.758Z,28.10
2023-12-07T21:59:31.227Z,26.25
2023-12-07T22:01:57.866Z,24.92
2023-12-07T22:04:24.354Z,30.23
2023-12-07T22:06:52.426Z,18.33
2023-12-07T22:09:21.516Z,24.63
2023-12-07T22:11:52.086Z,19.90
2023-12-07T22:14:18.653Z,19.80
2023-12-07T22:16:45.376Z,24.48
2023-12-07T22:19:14.223Z,22.65
2023-12-07T22:21:40.820Z,25.83
2023-12-07T22:24:07.493Z,22.15
2023-12-07T22:26:38.646Z,18.30
2023-12-07T22:29:05.053Z,25.88
2023-12-07T22:31:31.493Z,24.80
2023-12-07T22:34:00.870Z,25.40
2023-12-07T22:36:28.610Z,26.85
2023-12-07T22:38:55.081Z,23.48
2023-12-07T22:41:21.532Z,20.02
2023-12-07T22:43:47.936Z,25.52
2023-12-07T22:46:19.688Z,19.00
2023-12-07T22:48:46.190Z,24.75
2023-12-07T22:51:12.656Z,22.55
2023-12-07T22:53:38.999Z,17.30
2023-12-07T22:56:05.713Z,19.40
2023-12-07T22:58:32.414Z,20.77
2023-12-07T23:00:58.933Z,13.45
2023-12-07T23:03:28.096Z,17.30
2023-12-07T23:06:30.258Z,16.20
2023-12-07T23:08:59.698Z,14.55
2023-12-07T23:11:29.272Z,17.17
2023-12-07T23:13:58.900Z,15.98
2023-12-07T23:16:29.965Z,20.27
2023-12-07T23:18:59.145Z,17.63
2023-12-07T23:21:28.373Z,18.38
2023-12-07T23:23:55.075Z,16.00
2023-12-07T23:26:22.191Z,18.13
2023-12-07T23:28:48.788Z,19.20
2023-12-07T23:31:15.194Z,21.35
2023-12-07T23:33:41.703Z,16.60
2023-12-07T23:36:09.164Z,20.20
2023-12-07T23:38:38.483Z,20.90
2023-12-07T23:41:05.097Z,19.33
2023-12-07T23:43:31.555Z,16.35
2023-12-07T23:45:58.035Z,20.20
2023-12-07T23:48:24.561Z,16.15
2023-12-07T23:50:51.997Z,18.95
2023-12-07T23:53:18.522Z,16.15
2023-12-07T23:55:46.121Z,18.73
2023-12-07T23:58:12.777Z,18.42
